createdAt,value
2017-10-31T00:01:28.666Z,101299.83
2017-10-31T00:04:30.087Z,101292.37
2017-10-31T00:07:31.525Z,101298.14
2017-10-31T00:10:32.951Z,101293.75
2017-10-31T00:13:34.400Z,101301.68
2017-10-31T00:16:35.778Z,101302.56
2017-10-31T00:19:37.226Z,101289.80
2017-10-31T00:22:38.636Z,101292.86
2017-10-31T00:25:40.146Z,101290.64
2017-10-31T00:28:41.600Z,101296.20
2017-10-31T00:31:43.011Z,101289.34
2017-10-31T00:34:44.446Z,101288.89
2017-10-31T00:37:45.905Z,101282.70
2017-10-31T00:40:47.328Z,101291.52
2017-10-31T00:43:48.835Z,101288.45
2017-10-31T00:46:51.006Z,101287.11
2017-10-31T00:49:53.179Z,101284.05
2017-10-31T00:52:54.633Z,101283.02
2017-10-31T00:55:56.819Z,101279.45
2017-10-31T00:58:58.239Z,101275.07
2017-10-31T01:02:00.457Z,101276.54
2017-10-31T01:05:02.687Z,101280.08
2017-10-31T01:08:04.847Z,101281.16
2017-10-31T01:11:07.053Z,101275.97
2017-10-31T01:14:08.535Z,101274.05
2017-10-31T01:17:09.987Z,101266.41
2017-10-31T01:20:11.367Z,101267.20
2017-10-31T01:23:12.863Z,101269.03
2017-10-31T01:26:14.271Z,101269.07
2017-10-31T01:29:15.739Z,101263.76
2017-10-31T01:32:18.006Z,101262.44
2017-10-31T01:35:20.159Z,101251.45
2017-10-31T01:38:21.671Z,101240.81
2017-10-31T01:41:23.117Z,101244.39
2017-10-31T01:44:24.574Z,101252.75
2017-10-31T01:47:26.047Z,101254.48
2017-10-31T01:50:27.491Z,101224.58
2017-10-31T01:53:28.965Z,101248.33
2017-10-31T01:56:30.372Z,101251.44
2017-10-31T01:59:31.837Z,101243.95
2017-10-31T02:02:33.350Z,101245.25
2017-10-31T02:05:35.626Z,101244.36
2017-10-31T02:08:37.876Z,101239.95
2017-10-31T02:11:39.363Z,101245.73
2017-10-31T02:14:41.568Z,101239.52
2017-10-31T02:17:43.030Z,101233.80
2017-10-31T02:20:44.530Z,101233.37
2017-10-31T02:23:46.775Z,101237.75
2017-10-31T02:26:48.314Z,101236.44
2017-10-31T02:29:49.776Z,101246.59
2017-10-31T02:32:51.284Z,101244.37
2017-10-31T02:35:52.863Z,101249.25
2017-10-31T02:39:12.844Z,101250.53
2017-10-31T02:42:14.391Z,101270.83
2017-10-31T02:45:15.830Z,101240.84
2017-10-31T02:48:17.340Z,101246.95
2017-10-31T02:51:18.788Z,101247.03
2017-10-31T02:54:20.295Z,101246.11
2017-10-31T02:57:21.837Z,101228.08
2017-10-31T03:00:24.036Z,101226.70
2017-10-31T03:03:25.552Z,101230.73
2017-10-31T03:06:27.091Z,101239.01
2017-10-31T03:09:28.617Z,101236.88
2017-10-31T03:12:30.050Z,101236.02
2017-10-31T03:15:31.509Z,101232.94
2017-10-31T03:18:33.015Z,101230.28
2017-10-31T03:21:35.279Z,101228.55
2017-10-31T03:24:36.745Z,101234.69
2017-10-31T03:27:39.041Z,101232.92
2017-10-31T03:30:40.554Z,101230.73
2017-10-31T03:33:42.011Z,101220.14
2017-10-31T03:36:44.213Z,101220.58
2017-10-31T03:39:45.766Z,101212.64
2017-10-31T03:42:47.256Z,101216.60
2017-10-31T03:45:48.723Z,101208.23
2017-10-31T03:48:50.187Z,101208.22
2017-10-31T03:51:51.686Z,101209.53
2017-10-31T03:54:53.198Z,101205.19
2017-10-31T03:57:55.419Z,101212.62
2017-10-31T04:00:56.859Z,101202.11
2017-10-31T04:03:58.360Z,101215.29
2017-10-31T04:06:59.923Z,101208.22
2017-10-31T04:10:01.396Z,101210.88
2017-10-31T04:13:03.571Z,101221.03
2017-10-31T04:16:05.750Z,101207.77
2017-10-31T04:19:07.219Z,101221.86
2017-10-31T04:22:08.649Z,101216.20
2017-10-31T04:25:10.915Z,101217.48
2017-10-31T04:28:13.116Z,101205.19
2017-10-31T04:31:14.607Z,101211.73
2017-10-31T04:34:16.052Z,101215.31
2017-10-31T04:37:18.240Z,101216.61
2017-10-31T04:40:19.704Z,101213.98
2017-10-31T04:43:21.925Z,101216.17
2017-10-31T04:46:23.420Z,101217.06
2017-10-31T04:49:24.938Z,101221.05
2017-10-31T04:52:26.383Z,101218.38
2017-10-31T04:55:27.863Z,101217.05
2017-10-31T04:58:29.266Z,101221.70
2017-10-31T05:04:38.758Z,101206.48
2017-10-31T05:07:40.290Z,101200.34
2017-10-31T05:10:41.728Z,101194.17
2017-10-31T05:13:43.295Z,101195.47
2017-10-31T05:16:44.738Z,101190.66
2017-10-31T05:19:46.269Z,101198.98
2017-10-31T05:22:48.504Z,101201.61
2017-10-31T05:25:49.966Z,101203.85
2017-10-31T05:28:51.441Z,101193.27
2017-10-31T05:31:53.596Z,101193.73
2017-10-31T05:34:55.041Z,101198.57
2017-10-31T05:37:56.518Z,101195.00
2017-10-31T05:40:58.698Z,101201.60
2017-10-31T05:44:00.962Z,101199.38
2017-10-31T05:50:04.464Z,101198.52
2017-10-31T05:53:05.903Z,101195.88
2017-10-31T05:56:07.378Z,101205.10
2017-10-31T05:59:08.780Z,101201.59
2017-10-31T06:02:10.210Z,101194.64
2017-10-31T06:05:11.664Z,101195.92
2017-10-31T06:08:13.151Z,101194.57
2017-10-31T06:11:14.564Z,101201.23
2017-10-31T06:14:15.978Z,101199.84
2017-10-31T06:17:17.432Z,101205.19
2017-10-31T06:20:19.599Z,101204.72
2017-10-31T06:27:08.154Z,101199.45
2017-10-31T06:33:47.935Z,101203.84
2017-10-31T06:36:49.392Z,101200.35
2017-10-31T06:39:50.915Z,101212.61
2017-10-31T06:42:52.439Z,101215.31
2017-10-31T06:45:54.604Z,101213.93
2017-10-31T06:48:56.847Z,101212.65
2017-10-31T06:51:58.318Z,101209.59
2017-10-31T06:54:59.793Z,101210.45
2017-10-31T06:58:01.317Z,101217.97
2017-10-31T07:01:03.532Z,101215.30
2017-10-31T07:04:04.972Z,101207.81
2017-10-31T07:07:06.407Z,101219.20
2017-10-31T07:10:07.971Z,101221.00
2017-10-31T07:13:09.422Z,101212.66
2017-10-31T07:16:11.646Z,101217.91
2017-10-31T07:19:13.200Z,101216.64
2017-10-31T07:22:15.493Z,101221.41
2017-10-31T07:25:17.709Z,101220.97
2017-10-31T07:28:19.319Z,101211.30
2017-10-31T07:31:20.836Z,101220.59
2017-10-31T07:34:22.308Z,101224.55
2017-10-31T07:37:23.893Z,101223.23
2017-10-31T07:40:26.153Z,101230.24
2017-10-31T07:43:27.682Z,101231.61
2017-10-31T07:46:29.171Z,101228.52
2017-10-31T07:49:31.512Z,101223.70
2017-10-31T07:52:33.062Z,101219.20
2017-10-31T07:55:34.604Z,101220.17
2017-10-31T07:58:36.108Z,101234.25
2017-10-31T08:01:37.582Z,101208.25
2017-10-31T08:04:39.084Z,101216.63
2017-10-31T08:07:40.706Z,101216.98
2017-10-31T08:10:42.197Z,101220.56
2017-10-31T08:13:43.751Z,101217.38
2017-10-31T08:16:45.277Z,101219.52
2017-10-31T08:19:46.817Z,101225.66
2017-10-31T08:22:48.344Z,101217.58
2017-10-31T08:25:50.626Z,101218.31
2017-10-31T08:28:52.865Z,101205.41
2017-10-31T08:31:54.408Z,101206.78
2017-10-31T08:34:55.894Z,101213.52
2017-10-31T08:37:58.182Z,101217.02
2017-10-31T08:40:59.764Z,101216.08
2017-10-31T08:44:01.284Z,101217.88
2017-10-31T08:47:03.556Z,101219.44
2017-10-31T08:50:05.818Z,101219.38
2017-10-31T08:53:07.375Z,101224.10
2017-10-31T08:56:09.581Z,101209.09
2017-10-31T08:59:11.124Z,101201.59
2017-10-31T09:02:12.739Z,101210.58
2017-10-31T09:05:14.271Z,101208.14
2017-10-31T09:08:15.777Z,101211.23
2017-10-31T09:11:17.273Z,101213.80
2017-10-31T09:14:18.840Z,101218.80
2017-10-31T09:17:20.323Z,101219.84
2017-10-31T09:20:22.595Z,101213.63
2017-10-31T09:23:24.815Z,101223.50
2017-10-31T09:26:26.337Z,101220.50
2017-10-31T09:29:28.682Z,101223.97
2017-10-31T09:32:30.165Z,101220.90
2017-10-31T09:35:32.454Z,101215.12
2017-10-31T09:38:34.001Z,101201.51
2017-10-31T09:41:35.519Z,101209.28
2017-10-31T09:44:37.731Z,101195.80
2017-10-31T09:47:39.268Z,101198.84
2017-10-31T09:50:40.806Z,101192.89
2017-10-31T09:53:43.026Z,101201.75
2017-10-31T09:56:44.625Z,101195.06
2017-10-31T09:59:46.934Z,101196.95
2017-10-31T10:02:48.467Z,101189.19
2017-10-31T10:05:50.736Z,101195.38
2017-10-31T10:08:53.041Z,101195.69
2017-10-31T10:11:54.535Z,101198.00
2017-10-31T10:14:56.160Z,101196.07
2017-10-31T10:17:57.661Z,101206.60
2017-10-31T10:20:59.191Z,101191.81
2017-10-31T10:24:00.720Z,101187.62
2017-10-31T10:27:02.230Z,101180.19
2017-10-31T10:30:04.507Z,101182.11
2017-10-31T10:33:06.739Z,101186.91
2017-10-31T10:36:08.240Z,101173.59
2017-10-31T10:39:10.592Z,101171.06
2017-10-31T10:42:12.167Z,101175.12
2017-10-31T10:45:14.390Z,101179.09
2017-10-31T10:48:15.960Z,101180.27
2017-10-31T10:51:17.510Z,101179.68
2017-10-31T10:54:19.018Z,101167.53
2017-10-31T10:57:20.516Z,101162.35
2017-10-31T11:00:28.118Z,101160.62
2017-10-31T11:03:29.640Z,101146.61
2017-10-31T11:06:31.219Z,101152.12
2017-10-31T11:09:32.794Z,101147.17
2017-10-31T11:12:34.300Z,101143.20
2017-10-31T11:15:35.833Z,101143.11
2017-10-31T11:18:37.448Z,101130.88
2017-10-31T11:21:39.075Z,101139.03
2017-10-31T11:24:40.616Z,101130.20
2017-10-31T11:27:42.100Z,101122.88
2017-10-31T11:30:43.647Z,101127.52
2017-10-31T11:33:45.150Z,101123.27
2017-10-31T11:36:46.799Z,101108.69
2017-10-31T11:39:49.070Z,101123.83
2017-10-31T11:42:50.616Z,101114.50
2017-10-31T11:45:52.883Z,101110.96
2017-10-31T11:48:54.398Z,101115.77
2017-10-31T11:51:55.951Z,101115.52
2017-10-31T11:54:57.555Z,101113.80
2017-10-31T11:57:59.124Z,101109.98
2017-10-31T12:01:00.665Z,101097.66
2017-10-31T12:04:02.955Z,101094.49
2017-10-31T12:07:04.475Z,101101.43
2017-10-31T12:10:05.973Z,101093.03
2017-10-31T12:13:08.227Z,101118.11
2017-10-31T12:16:10.525Z,101097.55
2017-10-31T12:19:12.092Z,101091.81
2017-10-31T12:22:13.643Z,101089.38
2017-10-31T12:25:15.167Z,101090.98
2017-10-31T12:28:17.408Z,101099.64
2017-10-31T12:31:18.961Z,101095.23
2017-10-31T12:34:20.498Z,101091.44
2017-10-31T12:37:22.113Z,101088.16
2017-10-31T12:40:24.438Z,101086.95
2017-10-31T12:43:26.040Z,101074.90
2017-10-31T12:46:27.650Z,101084.05
2017-10-31T12:49:29.220Z,101085.20
2017-10-31T12:52:30.756Z,101085.01
2017-10-31T12:55:32.248Z,101074.69
2017-10-31T12:58:34.584Z,101071.30
2017-10-31T13:01:36.094Z,101067.73
2017-10-31T13:04:37.698Z,101074.64
2017-10-31T13:07:39.360Z,101067.06
2017-10-31T13:10:41.303Z,101066.27
2017-10-31T13:13:43.189Z,101068.32
2017-10-31T13:16:45.746Z,101059.82
2017-10-31T13:19:47.808Z,101044.80
2017-10-31T13:22:49.398Z,101061.31
2017-10-31T13:25:51.948Z,101073.25
2017-10-31T13:28:56.080Z,101067.85
2017-10-31T13:31:59.247Z,101064.92
2017-10-31T13:35:02.553Z,101059.16
2017-10-31T13:38:04.928Z,101063.52
2017-10-31T13:41:09.376Z,101063.74
2017-10-31T13:44:12.808Z,101046.08
2017-10-31T13:47:14.835Z,101061.92
2017-10-31T13:50:17.709Z,101059.71
2017-10-31T13:53:20.901Z,101047.30
2017-10-31T13:56:22.553Z,101043.38
2017-10-31T13:59:24.216Z,101037.05
2017-10-31T14:02:28.347Z,101040.98
2017-10-31T14:05:30.992Z,101038.02
2017-10-31T14:08:34.547Z,101035.52
2017-10-31T14:11:37.737Z,101045.38
2017-10-31T14:14:40.093Z,101036.12
2017-10-31T14:17:42.089Z,101034.43
2017-10-31T14:20:46.008Z,101028.77
2017-10-31T14:23:49.494Z,101014.77
2017-10-31T14:26:52.043Z,101018.95
2017-10-31T14:29:54.947Z,101020.11
2017-10-31T14:32:57.225Z,101017.70
2017-10-31T14:35:58.914Z,101014.33
2017-10-31T14:39:00.832Z,101013.17
2017-10-31T14:42:02.886Z,101012.30
2017-10-31T14:45:05.270Z,101008.70
2017-10-31T14:48:07.313Z,101009.36
2017-10-31T14:51:09.506Z,101002.13
2017-10-31T14:54:11.575Z,100976.76
2017-10-31T14:57:14.994Z,100998.09
2017-10-31T15:00:17.170Z,101001.86
2017-10-31T15:03:20.445Z,100997.34
2017-10-31T15:06:22.193Z,100989.81
2017-10-31T15:09:24.631Z,100986.47
2017-10-31T15:12:26.818Z,100989.56
2017-10-31T15:15:29.541Z,100980.88
2017-10-31T15:18:32.438Z,100978.36
2017-10-31T15:21:35.431Z,100978.08
2017-10-31T15:24:39.694Z,100971.45
2017-10-31T15:27:41.445Z,100972.58
2017-10-31T15:30:43.054Z,100965.00
2017-10-31T15:33:45.505Z,100939.98
2017-10-31T15:36:47.050Z,100966.04
2017-10-31T15:39:49.808Z,100961.88
2017-10-31T15:42:51.411Z,100968.17
2017-10-31T15:45:52.982Z,100960.51
2017-10-31T15:48:55.736Z,100977.52
2017-10-31T15:52:00.280Z,100966.05
2017-10-31T15:55:03.351Z,100957.62
2017-10-31T15:58:06.298Z,100959.91
2017-10-31T16:01:09.990Z,100970.91
2017-10-31T16:04:11.855Z,100968.23
2017-10-31T16:07:14.307Z,100961.66
2017-10-31T16:10:16.665Z,100964.72
2017-10-31T16:13:20.020Z,100958.66
2017-10-31T16:16:23.823Z,100961.06
2017-10-31T16:19:28.467Z,100971.35
2017-10-31T16:22:30.802Z,100971.45
2017-10-31T16:25:32.574Z,100968.23
2017-10-31T16:28:35.343Z,100970.58
2017-10-31T16:31:36.983Z,100959.98
2017-10-31T16:34:38.696Z,100968.55
2017-10-31T16:37:41.087Z,100967.16
2017-10-31T16:40:42.668Z,100964.88
2017-10-31T16:43:44.369Z,100964.00
2017-10-31T16:46:46.034Z,100979.00
2017-10-31T16:49:48.410Z,100960.64
2017-10-31T16:52:50.752Z,100968.11
2017-10-31T16:55:52.425Z,100967.88
2017-10-31T16:58:54.915Z,100962.56
2017-10-31T17:01:57.345Z,100967.88
2017-10-31T17:05:00.018Z,100957.20
2017-10-31T17:08:01.750Z,100969.52
2017-10-31T17:11:04.204Z,100964.89
2017-10-31T17:14:05.867Z,100968.15
2017-10-31T17:17:08.215Z,100961.73
2017-10-31T17:20:10.025Z,100966.22
2017-10-31T17:23:11.748Z,100960.38
2017-10-31T17:26:13.347Z,100959.73
2017-10-31T17:29:15.120Z,100956.64
2017-10-31T17:32:16.708Z,100947.29
2017-10-31T17:35:18.495Z,100960.86
2017-10-31T17:38:20.833Z,100959.39
2017-10-31T17:41:22.476Z,100963.56
2017-10-31T17:44:24.142Z,100961.23
2017-10-31T17:47:25.805Z,100972.08
2017-10-31T17:50:27.643Z,100951.77
2017-10-31T17:53:29.253Z,100945.22
2017-10-31T17:56:30.939Z,100944.20
2017-10-31T17:59:33.358Z,100928.91
2017-10-31T18:02:34.933Z,100947.30
2017-10-31T18:05:36.712Z,100939.91
2017-10-31T18:08:39.035Z,100944.78
2017-10-31T18:11:40.728Z,100944.53
2017-10-31T18:14:44.382Z,100929.25
2017-10-31T18:17:46.066Z,100916.19
2017-10-31T18:20:47.852Z,100925.98
2017-10-31T18:23:49.415Z,100943.26
2017-10-31T18:26:51.787Z,100931.75
2017-10-31T18:29:53.475Z,100926.16
2017-10-31T18:32:55.094Z,100932.67
2017-10-31T18:35:56.675Z,100922.68
2017-10-31T18:38:59.079Z,100919.41
2017-10-31T18:42:00.763Z,100905.03
2017-10-31T18:45:02.465Z,100905.39
2017-10-31T18:48:04.821Z,100906.78
2017-10-31T18:51:06.341Z,100914.91
2017-10-31T18:54:07.966Z,100902.74
2017-10-31T18:57:09.559Z,100908.13
2017-10-31T19:00:11.176Z,100907.37
2017-10-31T19:03:12.749Z,100910.95
2017-10-31T19:06:14.366Z,100909.96
2017-10-31T19:09:16.680Z,100906.28
2017-10-31T19:12:18.227Z,100899.00
2017-10-31T19:15:19.782Z,100885.73
2017-10-31T19:18:21.348Z,100886.32
2017-10-31T19:21:22.877Z,100882.29
2017-10-31T19:24:24.460Z,100881.39
2017-10-31T19:27:25.987Z,100876.09
2017-10-31T19:30:27.560Z,100879.77
2017-10-31T19:33:29.082Z,100880.27
2017-10-31T19:36:31.397Z,100873.78
2017-10-31T19:39:32.980Z,100866.45
2017-10-31T19:42:34.571Z,100872.71
2017-10-31T19:45:36.214Z,100867.97
2017-10-31T19:48:38.529Z,100871.39
2017-10-31T19:51:40.076Z,100869.69
2017-10-31T19:54:41.712Z,100870.86
2017-10-31T19:57:43.996Z,100875.33
2017-10-31T20:00:45.541Z,100865.03
2017-10-31T20:03:47.150Z,100871.89
2017-10-31T20:06:48.722Z,100862.70
2017-10-31T20:09:50.247Z,100874.11
2017-10-31T20:12:51.795Z,100864.83
2017-10-31T20:15:53.360Z,100878.55
2017-10-31T20:18:54.912Z,100862.73
2017-10-31T20:21:56.463Z,100865.62
2017-10-31T20:24:57.999Z,100862.52
2017-10-31T20:27:59.599Z,100883.07
2017-10-31T20:31:01.143Z,100868.39
2017-10-31T20:34:02.734Z,100867.19
2017-10-31T20:37:05.038Z,100862.67
2017-10-31T20:40:06.660Z,100867.81
2017-10-31T20:43:08.951Z,100874.81
2017-10-31T20:46:11.200Z,100867.41
2017-10-31T20:49:12.738Z,100861.27
2017-10-31T20:52:14.303Z,100867.94
2017-10-31T20:55:15.862Z,100855.91
2017-10-31T20:58:17.392Z,100869.80
2017-10-31T21:01:18.878Z,100879.25
2017-10-31T21:04:20.434Z,100871.33
2017-10-31T21:07:22.703Z,100850.94
2017-10-31T21:10:24.210Z,100873.17
2017-10-31T21:13:25.736Z,100866.96
2017-10-31T21:16:27.270Z,100866.17
2017-10-31T21:19:28.765Z,100859.16
2017-10-31T21:22:30.311Z,100862.20
2017-10-31T21:25:31.873Z,100855.08
2017-10-31T21:28:33.426Z,100844.43
2017-10-31T21:31:34.974Z,100843.10
2017-10-31T21:34:36.534Z,100859.27
2017-10-31T21:37:38.082Z,100844.71
2017-10-31T21:40:39.678Z,100843.16
2017-10-31T21:43:41.158Z,100839.13
2017-10-31T21:46:42.685Z,100843.73
2017-10-31T21:49:44.218Z,100840.13
2017-10-31T21:52:45.748Z,100840.30
2017-10-31T21:55:47.983Z,100844.81
2017-10-31T21:58:49.451Z,100837.81
2017-10-31T22:01:50.967Z,100837.97
2017-10-31T22:04:52.453Z,100833.66
2017-10-31T22:07:53.967Z,100829.87
2017-10-31T22:10:55.466Z,100843.11
2017-10-31T22:13:56.989Z,100834.27
2017-10-31T22:16:58.504Z,100850.05
2017-10-31T22:20:00.028Z,100830.48
2017-10-31T22:23:01.567Z,100832.88
2017-10-31T22:26:03.131Z,100840.09
2017-10-31T22:29:04.656Z,100818.77
2017-10-31T22:32:06.168Z,100823.23
2017-10-31T22:35:08.438Z,100809.82
2017-10-31T22:38:10.694Z,100816.77
2017-10-31T22:41:13.058Z,100816.16
2017-10-31T22:44:14.573Z,100799.69
2017-10-31T22:47:16.074Z,100800.42
2017-10-31T22:50:18.450Z,100799.28
2017-10-31T22:53:20.718Z,100804.77
2017-10-31T22:56:22.271Z,100793.45
2017-10-31T22:59:23.742Z,100795.06
2017-10-31T23:02:25.337Z,100788.64
2017-10-31T23:05:26.850Z,100790.50
2017-10-31T23:08:28.587Z,100785.38
2017-10-31T23:11:30.913Z,100790.05
2017-10-31T23:14:32.438Z,100790.80
2017-10-31T23:17:34.722Z,100783.47
2017-10-31T23:20:36.244Z,100786.80
2017-10-31T23:23:38.564Z,100791.95
2017-10-31T23:26:40.144Z,100777.42
2017-10-31T23:29:41.734Z,100780.69
2017-10-31T23:32:43.958Z,100785.47
2017-10-31T23:35:45.508Z,100782.95
2017-10-31T23:38:47.042Z,100779.20
2017-10-31T23:41:48.640Z,100784.10
2017-10-31T23:44:50.116Z,100773.50
2017-10-31T23:47:51.645Z,100776.63
2017-10-31T23:50:53.152Z,100771.76
2017-10-31T23:53:55.362Z,100775.02
2017-10-31T23:56:56.931Z,100779.44
2017-10-31T23:59:59.179Z,100769.36
